Hlavní strana
METAR-TAF:

METAR-TAF

Letiště :

Ørsta-Volda, Norsko

zeměpisná šířka: 62-11N, zeměpisná délka: 006-04E, výška: 7 m

Aktuální stav počasí

Zpráva byla vytvořena před 38 minutami, v 12:20 UTC
Západní vítr 6 kt
Teplota 7°C
Vlhkost vzduchu 87%
Tlak 1027 hPa
Viditelnost: 9000 m
Polojasno ve výšce 1500 ft
Oblačno až skoro zataženo ve výšce 2400 ft
slabý déšť, mrholení

METAR: ENOV 011220Z 26006KT 9000 -RADZ SCT015 BKN024 07/05 Q1027 RMK WIND 2175FT 27011KT

Čas: 13:58 (12:58 UTC)


TAF: chybějící

Stav a předpovědi počasí z více než 4 000 letišť (zprávy METAR a TAF).

Červené a žluté tečky na mapě představují dostupné meteorologické stanice.

Když kurzor umístíte na tečku, zobrazí se název stanice.

Pak kliknutím zobrazíte stav a předpověď počasí.

Chcete-li změnit mapu, kliknutím na zelené tlačítko se znaménkem +mapu přiblížíte, kliknutím na zelené tlačítko se znaménkem – mapu oddálíte a kliknutím na zelené šipky přejdete na sousední mapy.


METAR-TAF: